sensor_id;sensor_type;location;lat;lon;timestamp;P1;durP1;ratioP1;P2;durP2;ratioP2
37785;SDS011;23625;48.784;9.336;2022-07-29T00:01:47;11.90;;;6.93;;
37785;SDS011;23625;48.784;9.336;2022-07-29T00:04:13;9.82;;;7.40;;
37785;SDS011;23625;48.784;9.336;2022-07-29T00:06:38;12.43;;;7.22;;
37785;SDS011;23625;48.784;9.336;2022-07-29T00:09:04;12.52;;;7.20;;
37785;SDS011;23625;48.784;9.336;2022-07-29T00:11:30;12.02;;;6.78;;
37785;SDS011;23625;48.784;9.336;2022-07-29T00:13:55;14.35;;;7.88;;
37785;SDS011;23625;48.784;9.336;2022-07-29T00:16:21;9.95;;;7.57;;
37785;SDS011;23625;48.784;9.336;2022-07-29T00:18:47;10.57;;;7.43;;
37785;SDS011;23625;48.784;9.336;2022-07-29T00:21:13;13.13;;;7.88;;
37785;SDS011;23625;48.784;9.336;2022-07-29T00:23:39;11.48;;;7.47;;
37785;SDS011;23625;48.784;9.336;2022-07-29T00:26:05;9.88;;;7.57;;
37785;SDS011;23625;48.784;9.336;2022-07-29T00:28:30;15.73;;;7.60;;
37785;SDS011;23625;48.784;9.336;2022-07-29T00:30:56;11.00;;;6.93;;
37785;SDS011;23625;48.784;9.336;2022-07-29T00:33:22;11.25;;;7.07;;
37785;SDS011;23625;48.784;9.336;2022-07-29T00:35:48;14.38;;;8.27;;
37785;SDS011;23625;48.784;9.336;2022-07-29T00:38:14;15.10;;;8.02;;
37785;SDS011;23625;48.784;9.336;2022-07-29T00:40:42;8.60;;;7.35;;
37785;SDS011;23625;48.784;9.336;2022-07-29T00:43:09;9.27;;;7.13;;
37785;SDS011;23625;48.784;9.336;2022-07-29T00:45:35;13.50;;;7.95;;
37785;SDS011;23625;48.784;9.336;2022-07-29T00:48:01;12.60;;;7.88;;
37785;SDS011;23625;48.784;9.336;2022-07-29T00:50:29;12.95;;;7.78;;
37785;SDS011;23625;48.784;9.336;2022-07-29T00:52:55;10.60;;;7.35;;
37785;SDS011;23625;48.784;9.336;2022-07-29T00:55:21;14.00;;;8.23;;
37785;SDS011;23625;48.784;9.336;2022-07-29T00:57:53;10.48;;;8.13;;
37785;SDS011;23625;48.784;9.336;2022-07-29T01:00:23;12.02;;;7.82;;
37785;SDS011;23625;48.784;9.336;2022-07-29T01:02:50;15.77;;;8.70;;
37785;SDS011;23625;48.784;9.336;2022-07-29T01:05:17;13.65;;;8.10;;
37785;SDS011;23625;48.784;9.336;2022-07-29T01:07:45;11.60;;;7.80;;
37785;SDS011;23625;48.784;9.336;2022-07-29T01:10:12;10.55;;;7.63;;
37785;SDS011;23625;48.784;9.336;2022-07-29T01:12:39;9.35;;;7.28;;
37785;SDS011;23625;48.784;9.336;2022-07-29T01:15:06;11.18;;;7.28;;
37785;SDS011;23625;48.784;9.336;2022-07-29T01:20:19;11.45;;;6.80;;
37785;SDS011;23625;48.784;9.336;2022-07-29T01:31:14;13.40;;;7.72;;
37785;SDS011;23625;48.784;9.336;2022-07-29T01:33:45;10.23;;;7.13;;
37785;SDS011;23625;48.784;9.336;2022-07-29T01:36:28;10.93;;;7.85;;
37785;SDS011;23625;48.784;9.336;2022-07-29T01:39:14;14.13;;;7.57;;
37785;SDS011;23625;48.784;9.336;2022-07-29T01:41:55;11.18;;;7.50;;
37785;SDS011;23625;48.784;9.336;2022-07-29T01:44:31;13.70;;;7.88;;
37785;SDS011;23625;48.784;9.336;2022-07-29T01:47:14;11.05;;;7.88;;
37785;SDS011;23625;48.784;9.336;2022-07-29T01:49:46;11.77;;;7.90;;
37785;SDS011;23625;48.784;9.336;2022-07-29T01:52:19;12.10;;;7.80;;
37785;SDS011;23625;48.784;9.336;2022-07-29T01:54:50;11.23;;;8.68;;
37785;SDS011;23625;48.784;9.336;2022-07-29T01:57:20;13.50;;;7.97;;
37785;SDS011;23625;48.784;9.336;2022-07-29T01:59:51;27.38;;;8.23;;
37785;SDS011;23625;48.784;9.336;2022-07-29T02:02:18;9.30;;;7.38;;
37785;SDS011;23625;48.784;9.336;2022-07-29T02:04:45;9.38;;;6.20;;
37785;SDS011;23625;48.784;9.336;2022-07-29T02:07:15;10.13;;;7.60;;
37785;SDS011;23625;48.784;9.336;2022-07-29T02:09:44;10.30;;;7.00;;
37785;SDS011;23625;48.784;9.336;2022-07-29T02:12:12;12.77;;;6.95;;
37785;SDS011;23625;48.784;9.336;2022-07-29T02:14:40;11.80;;;6.82;;
37785;SDS011;23625;48.784;9.336;2022-07-29T02:17:09;10.35;;;6.93;;
37785;SDS011;23625;48.784;9.336;2022-07-29T02:19:37;8.00;;;6.63;;
37785;SDS011;23625;48.784;9.336;2022-07-29T02:22:04;11.65;;;7.03;;
37785;SDS011;23625;48.784;9.336;2022-07-29T02:24:32;15.27;;;6.88;;
37785;SDS011;23625;48.784;9.336;2022-07-29T02:27:01;9.50;;;6.82;;
37785;SDS011;23625;48.784;9.336;2022-07-29T02:29:28;8.82;;;6.90;;
37785;SDS011;23625;48.784;9.336;2022-07-29T02:31:56;13.40;;;6.40;;
37785;SDS011;23625;48.784;9.336;2022-07-29T02:34:23;11.88;;;6.88;;
37785;SDS011;23625;48.784;9.336;2022-07-29T02:36:50;11.43;;;6.35;;
37785;SDS011;23625;48.784;9.336;2022-07-29T02:39:17;10.10;;;6.15;;
37785;SDS011;23625;48.784;9.336;2022-07-29T02:41:44;8.13;;;6.50;;
37785;SDS011;23625;48.784;9.336;2022-07-29T02:44:20;13.00;;;7.13;;
37785;SDS011;23625;48.784;9.336;2022-07-29T02:46:49;10.80;;;6.72;;
37785;SDS011;23625;48.784;9.336;2022-07-29T02:54:55;9.93;;;7.05;;
37785;SDS011;23625;48.784;9.336;2022-07-29T02:57:37;13.13;;;6.60;;
37785;SDS011;23625;48.784;9.336;2022-07-29T03:00:26;10.48;;;6.35;;
37785;SDS011;23625;48.784;9.336;2022-07-29T03:02:54;8.80;;;6.70;;
37785;SDS011;23625;48.784;9.336;2022-07-29T03:05:23;11.32;;;6.65;;
37785;SDS011;23625;48.784;9.336;2022-07-29T03:08:04;8.30;;;6.32;;
37785;SDS011;23625;48.784;9.336;2022-07-29T03:10:31;10.13;;;6.20;;
37785;SDS011;23625;48.784;9.336;2022-07-29T03:12:57;11.75;;;7.07;;
37785;SDS011;23625;48.784;9.336;2022-07-29T03:15:24;12.07;;;6.47;;
37785;SDS011;23625;48.784;9.336;2022-07-29T03:17:50;7.70;;;6.78;;
37785;SDS011;23625;48.784;9.336;2022-07-29T03:20:17;11.77;;;6.60;;
37785;SDS011;23625;48.784;9.336;2022-07-29T03:22:44;10.85;;;7.03;;
37785;SDS011;23625;48.784;9.336;2022-07-29T03:25:13;9.35;;;6.75;;
37785;SDS011;23625;48.784;9.336;2022-07-29T03:27:40;13.38;;;6.05;;
37785;SDS011;23625;48.784;9.336;2022-07-29T03:30:07;9.70;;;7.43;;
37785;SDS011;23625;48.784;9.336;2022-07-29T03:32:34;8.98;;;6.82;;
37785;SDS011;23625;48.784;9.336;2022-07-29T03:35:00;10.18;;;6.50;;
37785;SDS011;23625;48.784;9.336;2022-07-29T03:37:26;11.52;;;7.05;;
37785;SDS011;23625;48.784;9.336;2022-07-29T03:39:52;11.43;;;6.47;;
37785;SDS011;23625;48.784;9.336;2022-07-29T03:42:21;9.20;;;6.30;;
37785;SDS011;23625;48.784;9.336;2022-07-29T03:44:57;11.25;;;6.57;;
37785;SDS011;23625;48.784;9.336;2022-07-29T03:47:25;8.27;;;6.20;;
37785;SDS011;23625;48.784;9.336;2022-07-29T03:49:54;9.32;;;6.55;;
37785;SDS011;23625;48.784;9.336;2022-07-29T03:52:26;10.00;;;6.78;;
37785;SDS011;23625;48.784;9.336;2022-07-29T03:54:52;7.30;;;6.15;;
37785;SDS011;23625;48.784;9.336;2022-07-29T03:57:18;12.65;;;6.68;;
37785;SDS011;23625;48.784;9.336;2022-07-29T03:59:48;8.55;;;5.88;;
37785;SDS011;23625;48.784;9.336;2022-07-29T04:02:15;11.00;;;6.88;;
37785;SDS011;23625;48.784;9.336;2022-07-29T04:04:41;10.85;;;6.20;;
37785;SDS011;23625;48.784;9.336;2022-07-29T04:07:09;9.13;;;6.20;;
37785;SDS011;23625;48.784;9.336;2022-07-29T04:09:37;9.05;;;6.63;;
37785;SDS011;23625;48.784;9.336;2022-07-29T04:12:02;9.38;;;5.82;;
37785;SDS011;23625;48.784;9.336;2022-07-29T04:14:28;10.10;;;6.75;;
37785;SDS011;23625;48.784;9.336;2022-07-29T04:16:55;9.45;;;6.20;;
37785;SDS011;23625;48.784;9.336;2022-07-29T04:19:20;9.75;;;5.35;;
37785;SDS011;23625;48.784;9.336;2022-07-29T04:21:46;9.20;;;6.47;;
37785;SDS011;23625;48.784;9.336;2022-07-29T04:24:12;10.82;;;5.70;;
37785;SDS011;23625;48.784;9.336;2022-07-29T04:26:37;15.27;;;6.45;;
37785;SDS011;23625;48.784;9.336;2022-07-29T04:29:03;11.32;;;6.10;;
37785;SDS011;23625;48.784;9.336;2022-07-29T04:31:28;10.52;;;6.20;;
37785;SDS011;23625;48.784;9.336;2022-07-29T04:33:54;10.57;;;6.07;;
37785;SDS011;23625;48.784;9.336;2022-07-29T04:36:20;10.48;;;5.85;;
37785;SDS011;23625;48.784;9.336;2022-07-29T04:38:45;8.52;;;6.35;;
37785;SDS011;23625;48.784;9.336;2022-07-29T04:41:11;8.20;;;6.05;;
37785;SDS011;23625;48.784;9.336;2022-07-29T04:43:36;8.27;;;6.80;;
37785;SDS011;23625;48.784;9.336;2022-07-29T04:46:05;8.82;;;6.65;;
37785;SDS011;23625;48.784;9.336;2022-07-29T04:48:31;7.75;;;6.20;;
37785;SDS011;23625;48.784;9.336;2022-07-29T04:50:57;7.97;;;5.97;;
37785;SDS011;23625;48.784;9.336;2022-07-29T04:53:24;11.30;;;5.93;;
37785;SDS011;23625;48.784;9.336;2022-07-29T04:55:49;8.10;;;6.05;;
37785;SDS011;23625;48.784;9.336;2022-07-29T04:58:15;9.02;;;6.13;;
37785;SDS011;23625;48.784;9.336;2022-07-29T05:00:41;12.02;;;6.28;;
37785;SDS011;23625;48.784;9.336;2022-07-29T05:03:06;8.48;;;5.35;;
37785;SDS011;23625;48.784;9.336;2022-07-29T05:05:32;9.15;;;6.28;;
37785;SDS011;23625;48.784;9.336;2022-07-29T05:07:58;7.32;;;5.70;;
37785;SDS011;23625;48.784;9.336;2022-07-29T05:10:24;9.60;;;5.43;;
37785;SDS011;23625;48.784;9.336;2022-07-29T05:12:49;10.32;;;5.93;;
37785;SDS011;23625;48.784;9.336;2022-07-29T05:15:15;7.68;;;6.30;;
37785;SDS011;23625;48.784;9.336;2022-07-29T05:17:42;8.23;;;5.20;;
37785;SDS011;23625;48.784;9.336;2022-07-29T05:20:08;8.93;;;6.05;;
37785;SDS011;23625;48.784;9.336;2022-07-29T05:22:34;8.40;;;5.68;;
37785;SDS011;23625;48.784;9.336;2022-07-29T05:25:00;11.13;;;6.10;;
37785;SDS011;23625;48.784;9.336;2022-07-29T05:27:26;8.55;;;6.05;;
37785;SDS011;23625;48.784;9.336;2022-07-29T05:29:51;8.60;;;6.60;;
37785;SDS011;23625;48.784;9.336;2022-07-29T05:32:17;8.38;;;6.20;;
37785;SDS011;23625;48.784;9.336;2022-07-29T05:34:43;11.23;;;6.40;;
37785;SDS011;23625;48.784;9.336;2022-07-29T05:37:08;8.20;;;6.22;;
37785;SDS011;23625;48.784;9.336;2022-07-29T05:39:34;7.63;;;5.75;;
37785;SDS011;23625;48.784;9.336;2022-07-29T05:42:00;10.82;;;6.70;;
37785;SDS011;23625;48.784;9.336;2022-07-29T05:44:25;8.88;;;6.10;;
37785;SDS011;23625;48.784;9.336;2022-07-29T05:46:51;8.30;;;5.95;;
37785;SDS011;23625;48.784;9.336;2022-07-29T05:49:16;11.80;;;6.75;;
37785;SDS011;23625;48.784;9.336;2022-07-29T05:51:42;6.75;;;5.43;;
37785;SDS011;23625;48.784;9.336;2022-07-29T05:54:08;7.20;;;5.65;;
37785;SDS011;23625;48.784;9.336;2022-07-29T05:56:35;8.35;;;5.93;;
37785;SDS011;23625;48.784;9.336;2022-07-29T05:59:01;10.05;;;5.50;;
37785;SDS011;23625;48.784;9.336;2022-07-29T06:01:27;8.50;;;5.60;;
37785;SDS011;23625;48.784;9.336;2022-07-29T06:03:53;6.82;;;5.18;;
37785;SDS011;23625;48.784;9.336;2022-07-29T06:06:18;8.80;;;4.97;;
37785;SDS011;23625;48.784;9.336;2022-07-29T06:08:44;7.35;;;4.80;;
37785;SDS011;23625;48.784;9.336;2022-07-29T06:11:09;6.43;;;4.78;;
37785;SDS011;23625;48.784;9.336;2022-07-29T06:13:35;6.70;;;4.05;;
37785;SDS011;23625;48.784;9.336;2022-07-29T06:16:00;9.63;;;6.43;;
37785;SDS011;23625;48.784;9.336;2022-07-29T06:18:26;9.10;;;5.07;;
37785;SDS011;23625;48.784;9.336;2022-07-29T06:20:52;8.88;;;4.63;;
37785;SDS011;23625;48.784;9.336;2022-07-29T06:23:19;6.55;;;3.90;;
37785;SDS011;23625;48.784;9.336;2022-07-29T06:25:45;5.78;;;4.00;;
37785;SDS011;23625;48.784;9.336;2022-07-29T06:28:11;8.43;;;4.10;;
37785;SDS011;23625;48.784;9.336;2022-07-29T06:30:37;5.38;;;3.53;;
37785;SDS011;23625;48.784;9.336;2022-07-29T06:33:04;7.03;;;3.67;;
37785;SDS011;23625;48.784;9.336;2022-07-29T06:35:30;8.07;;;4.32;;
37785;SDS011;23625;48.784;9.336;2022-07-29T06:37:58;8.23;;;4.68;;
37785;SDS011;23625;48.784;9.336;2022-07-29T06:40:24;4.05;;;3.47;;
37785;SDS011;23625;48.784;9.336;2022-07-29T06:43:08;5.78;;;3.78;;
37785;SDS011;23625;48.784;9.336;2022-07-29T06:45:34;12.65;;;3.58;;
37785;SDS011;23625;48.784;9.336;2022-07-29T06:48:00;4.82;;;3.58;;
37785;SDS011;23625;48.784;9.336;2022-07-29T06:50:25;5.45;;;3.40;;
37785;SDS011;23625;48.784;9.336;2022-07-29T06:52:51;8.20;;;3.80;;
37785;SDS011;23625;48.784;9.336;2022-07-29T06:55:17;5.15;;;3.03;;
37785;SDS011;23625;48.784;9.336;2022-07-29T06:57:44;4.90;;;3.33;;
37785;SDS011;23625;48.784;9.336;2022-07-29T07:00:10;10.13;;;3.50;;
37785;SDS011;23625;48.784;9.336;2022-07-29T07:02:36;9.98;;;3.50;;
37785;SDS011;23625;48.784;9.336;2022-07-29T07:05:02;4.65;;;3.40;;
37785;SDS011;23625;48.784;9.336;2022-07-29T07:07:28;5.50;;;3.80;;
37785;SDS011;23625;48.784;9.336;2022-07-29T07:09:53;4.47;;;3.33;;
37785;SDS011;23625;48.784;9.336;2022-07-29T07:12:19;4.22;;;3.15;;
37785;SDS011;23625;48.784;9.336;2022-07-29T07:14:45;4.40;;;3.45;;
37785;SDS011;23625;48.784;9.336;2022-07-29T07:17:10;4.43;;;3.08;;
37785;SDS011;23625;48.784;9.336;2022-07-29T07:19:36;5.45;;;3.08;;
37785;SDS011;23625;48.784;9.336;2022-07-29T07:22:01;4.50;;;2.60;;
37785;SDS011;23625;48.784;9.336;2022-07-29T07:24:27;4.68;;;2.85;;
37785;SDS011;23625;48.784;9.336;2022-07-29T07:26:52;4.10;;;3.70;;
37785;SDS011;23625;48.784;9.336;2022-07-29T07:29:18;5.00;;;3.58;;
37785;SDS011;23625;48.784;9.336;2022-07-29T07:31:44;7.03;;;3.50;;
37785;SDS011;23625;48.784;9.336;2022-07-29T07:34:10;7.43;;;3.47;;
37785;SDS011;23625;48.784;9.336;2022-07-29T07:36:36;5.22;;;3.33;;
37785;SDS011;23625;48.784;9.336;2022-07-29T07:39:02;9.23;;;3.22;;
37785;SDS011;23625;48.784;9.336;2022-07-29T07:41:28;7.80;;;2.85;;
37785;SDS011;23625;48.784;9.336;2022-07-29T07:43:54;8.43;;;3.50;;
37785;SDS011;23625;48.784;9.336;2022-07-29T07:46:19;5.43;;;3.00;;
37785;SDS011;23625;48.784;9.336;2022-07-29T07:48:45;6.63;;;3.25;;
37785;SDS011;23625;48.784;9.336;2022-07-29T07:51:10;8.07;;;3.40;;
37785;SDS011;23625;48.784;9.336;2022-07-29T07:53:36;15.23;;;10.32;;
37785;SDS011;23625;48.784;9.336;2022-07-29T07:56:02;14.70;;;7.05;;
37785;SDS011;23625;48.784;9.336;2022-07-29T07:58:29;10.20;;;4.53;;
37785;SDS011;23625;48.784;9.336;2022-07-29T08:00:54;6.78;;;4.18;;
37785;SDS011;23625;48.784;9.336;2022-07-29T08:03:20;4.22;;;3.58;;
37785;SDS011;23625;48.784;9.336;2022-07-29T08:05:46;4.22;;;3.42;;
37785;SDS011;23625;48.784;9.336;2022-07-29T08:08:12;6.25;;;3.35;;
37785;SDS011;23625;48.784;9.336;2022-07-29T08:10:37;5.35;;;3.75;;
37785;SDS011;23625;48.784;9.336;2022-07-29T08:13:22;7.03;;;3.72;;
37785;SDS011;23625;48.784;9.336;2022-07-29T08:15:50;4.82;;;3.20;;
37785;SDS011;23625;48.784;9.336;2022-07-29T08:18:27;10.35;;;3.13;;
37785;SDS011;23625;48.784;9.336;2022-07-29T08:20:54;6.30;;;3.35;;
37785;SDS011;23625;48.784;9.336;2022-07-29T08:23:23;6.40;;;3.40;;
37785;SDS011;23625;48.784;9.336;2022-07-29T08:25:49;5.57;;;3.45;;
37785;SDS011;23625;48.784;9.336;2022-07-29T08:28:15;8.30;;;3.55;;
37785;SDS011;23625;48.784;9.336;2022-07-29T08:30:41;4.35;;;3.60;;
37785;SDS011;23625;48.784;9.336;2022-07-29T08:33:06;3.85;;;3.28;;
37785;SDS011;23625;48.784;9.336;2022-07-29T08:35:32;7.28;;;3.17;;
37785;SDS011;23625;48.784;9.336;2022-07-29T08:37:58;7.20;;;3.60;;
37785;SDS011;23625;48.784;9.336;2022-07-29T08:40:26;7.20;;;3.22;;
37785;SDS011;23625;48.784;9.336;2022-07-29T08:42:52;10.30;;;3.58;;
37785;SDS011;23625;48.784;9.336;2022-07-29T08:45:18;7.80;;;3.40;;
37785;SDS011;23625;48.784;9.336;2022-07-29T08:47:45;5.60;;;3.42;;
37785;SDS011;23625;48.784;9.336;2022-07-29T08:50:11;5.70;;;3.20;;
37785;SDS011;23625;48.784;9.336;2022-07-29T08:52:38;8.60;;;3.35;;
37785;SDS011;23625;48.784;9.336;2022-07-29T08:55:06;9.65;;;3.85;;
37785;SDS011;23625;48.784;9.336;2022-07-29T08:57:33;4.47;;;3.47;;
37785;SDS011;23625;48.784;9.336;2022-07-29T09:00:03;6.30;;;3.60;;
37785;SDS011;23625;48.784;9.336;2022-07-29T09:02:35;4.93;;;3.65;;
37785;SDS011;23625;48.784;9.336;2022-07-29T09:05:06;7.47;;;3.58;;
37785;SDS011;23625;48.784;9.336;2022-07-29T09:07:32;8.13;;;3.70;;
37785;SDS011;23625;48.784;9.336;2022-07-29T09:09:58;7.50;;;3.63;;
37785;SDS011;23625;48.784;9.336;2022-07-29T09:12:25;5.75;;;3.20;;
37785;SDS011;23625;48.784;9.336;2022-07-29T09:14:50;6.80;;;3.80;;
37785;SDS011;23625;48.784;9.336;2022-07-29T09:17:16;4.10;;;3.28;;
37785;SDS011;23625;48.784;9.336;2022-07-29T09:19:42;7.75;;;3.63;;
37785;SDS011;23625;48.784;9.336;2022-07-29T09:22:08;6.80;;;3.90;;
37785;SDS011;23625;48.784;9.336;2022-07-29T09:24:42;5.55;;;3.75;;
37785;SDS011;23625;48.784;9.336;2022-07-29T09:29:44;6.30;;;3.78;;
37785;SDS011;23625;48.784;9.336;2022-07-29T09:32:10;7.07;;;3.50;;
37785;SDS011;23625;48.784;9.336;2022-07-29T09:34:36;6.60;;;3.42;;
37785;SDS011;23625;48.784;9.336;2022-07-29T09:37:02;6.97;;;3.22;;
37785;SDS011;23625;48.784;9.336;2022-07-29T09:42:05;6.53;;;3.03;;
37785;SDS011;23625;48.784;9.336;2022-07-29T09:44:41;8.02;;;3.85;;
37785;SDS011;23625;48.784;9.336;2022-07-29T09:47:11;6.55;;;3.78;;
37785;SDS011;23625;48.784;9.336;2022-07-29T09:49:56;5.15;;;3.55;;
37785;SDS011;23625;48.784;9.336;2022-07-29T09:52:23;6.50;;;3.90;;
37785;SDS011;23625;48.784;9.336;2022-07-29T09:54:50;11.60;;;3.78;;
37785;SDS011;23625;48.784;9.336;2022-07-29T09:57:28;11.05;;;3.80;;
37785;SDS011;23625;48.784;9.336;2022-07-29T09:59:58;11.15;;;4.05;;
37785;SDS011;23625;48.784;9.336;2022-07-29T10:02:31;5.72;;;3.65;;
37785;SDS011;23625;48.784;9.336;2022-07-29T10:04:59;10.35;;;4.10;;
37785;SDS011;23625;48.784;9.336;2022-07-29T10:07:26;6.25;;;3.38;;
37785;SDS011;23625;48.784;9.336;2022-07-29T10:10:18;4.50;;;3.55;;
37785;SDS011;23625;48.784;9.336;2022-07-29T10:13:05;7.25;;;3.45;;
37785;SDS011;23625;48.784;9.336;2022-07-29T10:15:33;4.70;;;3.78;;
37785;SDS011;23625;48.784;9.336;2022-07-29T10:18:03;7.60;;;4.35;;
37785;SDS011;23625;48.784;9.336;2022-07-29T10:20:29;6.43;;;3.70;;
37785;SDS011;23625;48.784;9.336;2022-07-29T10:22:55;5.55;;;4.20;;
37785;SDS011;23625;48.784;9.336;2022-07-29T10:25:21;6.03;;;3.63;;
37785;SDS011;23625;48.784;9.336;2022-07-29T10:27:48;8.50;;;4.32;;
37785;SDS011;23625;48.784;9.336;2022-07-29T10:30:16;5.60;;;4.03;;
37785;SDS011;23625;48.784;9.336;2022-07-29T10:36:01;7.93;;;3.80;;
37785;SDS011;23625;48.784;9.336;2022-07-29T10:43:40;6.70;;;3.70;;
37785;SDS011;23625;48.784;9.336;2022-07-29T10:46:08;8.63;;;3.92;;
37785;SDS011;23625;48.784;9.336;2022-07-29T10:48:35;7.13;;;3.90;;
37785;SDS011;23625;48.784;9.336;2022-07-29T10:51:08;4.40;;;3.58;;
37785;SDS011;23625;48.784;9.336;2022-07-29T10:53:50;10.35;;;5.70;;
37785;SDS011;23625;48.784;9.336;2022-07-29T11:01:44;5.57;;;4.22;;
37785;SDS011;23625;48.784;9.336;2022-07-29T11:04:10;9.20;;;4.45;;
37785;SDS011;23625;48.784;9.336;2022-07-29T11:09:27;11.55;;;4.60;;
37785;SDS011;23625;48.784;9.336;2022-07-29T11:11:55;11.35;;;4.35;;
37785;SDS011;23625;48.784;9.336;2022-07-29T11:17:25;16.73;;;4.40;;
37785;SDS011;23625;48.784;9.336;2022-07-29T11:19:51;9.77;;;4.57;;
37785;SDS011;23625;48.784;9.336;2022-07-29T11:22:32;13.25;;;5.00;;
37785;SDS011;23625;48.784;9.336;2022-07-29T11:25:12;11.50;;;5.20;;
37785;SDS011;23625;48.784;9.336;2022-07-29T11:27:42;10.50;;;5.85;;
37785;SDS011;23625;48.784;9.336;2022-07-29T11:30:09;13.25;;;6.07;;
37785;SDS011;23625;48.784;9.336;2022-07-29T11:32:37;12.05;;;5.82;;
37785;SDS011;23625;48.784;9.336;2022-07-29T11:38:22;19.20;;;6.38;;
37785;SDS011;23625;48.784;9.336;2022-07-29T11:43:52;20.30;;;5.80;;
37785;SDS011;23625;48.784;9.336;2022-07-29T11:49:13;8.48;;;4.30;;
37785;SDS011;23625;48.784;9.336;2022-07-29T11:52:05;14.68;;;5.28;;
37785;SDS011;23625;48.784;9.336;2022-07-29T11:54:32;12.25;;;4.13;;
37785;SDS011;23625;48.784;9.336;2022-07-29T11:57:01;11.35;;;4.40;;
37785;SDS011;23625;48.784;9.336;2022-07-29T11:59:27;12.05;;;4.50;;
37785;SDS011;23625;48.784;9.336;2022-07-29T12:01:55;9.80;;;4.43;;
37785;SDS011;23625;48.784;9.336;2022-07-29T12:04:21;8.60;;;4.30;;
37785;SDS011;23625;48.784;9.336;2022-07-29T12:06:51;12.18;;;3.95;;
37785;SDS011;23625;48.784;9.336;2022-07-29T12:09:20;11.07;;;4.18;;
37785;SDS011;23625;48.784;9.336;2022-07-29T12:11:46;13.23;;;3.70;;
37785;SDS011;23625;48.784;9.336;2022-07-29T12:14:28;10.38;;;3.80;;
37785;SDS011;23625;48.784;9.336;2022-07-29T12:16:56;8.23;;;3.78;;
37785;SDS011;23625;48.784;9.336;2022-07-29T12:19:22;17.33;;;5.60;;
37785;SDS011;23625;48.784;9.336;2022-07-29T12:21:52;10.05;;;5.13;;
37785;SDS011;23625;48.784;9.336;2022-07-29T12:24:19;9.63;;;4.72;;
37785;SDS011;23625;48.784;9.336;2022-07-29T12:26:58;9.80;;;4.35;;
37785;SDS011;23625;48.784;9.336;2022-07-29T12:29:25;8.95;;;4.00;;
37785;SDS011;23625;48.784;9.336;2022-07-29T12:31:54;6.88;;;3.08;;
37785;SDS011;23625;48.784;9.336;2022-07-29T12:34:22;10.07;;;4.60;;
37785;SDS011;23625;48.784;9.336;2022-07-29T12:36:49;10.40;;;4.38;;
37785;SDS011;23625;48.784;9.336;2022-07-29T12:39:18;11.57;;;4.82;;
37785;SDS011;23625;48.784;9.336;2022-07-29T12:41:44;10.07;;;4.22;;
37785;SDS011;23625;48.784;9.336;2022-07-29T12:44:11;8.27;;;3.85;;
37785;SDS011;23625;48.784;9.336;2022-07-29T12:46:36;8.18;;;4.63;;
37785;SDS011;23625;48.784;9.336;2022-07-29T12:49:03;5.57;;;3.90;;
37785;SDS011;23625;48.784;9.336;2022-07-29T12:54:15;8.30;;;3.22;;
37785;SDS011;23625;48.784;9.336;2022-07-29T12:56:42;4.67;;;3.63;;
37785;SDS011;23625;48.784;9.336;2022-07-29T12:59:13;6.15;;;3.03;;
37785;SDS011;23625;48.784;9.336;2022-07-29T13:01:42;4.63;;;3.05;;
37785;SDS011;23625;48.784;9.336;2022-07-29T13:04:09;4.85;;;2.55;;
37785;SDS011;23625;48.784;9.336;2022-07-29T13:09:16;36.80;;;18.38;;
37785;SDS011;23625;48.784;9.336;2022-07-29T13:11:44;5.97;;;3.83;;
37785;SDS011;23625;48.784;9.336;2022-07-29T13:17:21;6.15;;;3.72;;
37785;SDS011;23625;48.784;9.336;2022-07-29T13:19:53;5.28;;;3.25;;
37785;SDS011;23625;48.784;9.336;2022-07-29T13:22:33;4.78;;;3.25;;
37785;SDS011;23625;48.784;9.336;2022-07-29T13:25:00;7.63;;;3.72;;
37785;SDS011;23625;48.784;9.336;2022-07-29T13:27:28;6.88;;;3.75;;
37785;SDS011;23625;48.784;9.336;2022-07-29T13:29:57;5.10;;;4.00;;
37785;SDS011;23625;48.784;9.336;2022-07-29T13:32:25;8.77;;;4.50;;
37785;SDS011;23625;48.784;9.336;2022-07-29T13:34:52;5.65;;;3.78;;
37785;SDS011;23625;48.784;9.336;2022-07-29T13:37:18;6.63;;;4.65;;
37785;SDS011;23625;48.784;9.336;2022-07-29T13:39:44;6.78;;;4.50;;
37785;SDS011;23625;48.784;9.336;2022-07-29T13:42:09;8.82;;;4.55;;
37785;SDS011;23625;48.784;9.336;2022-07-29T13:44:38;5.68;;;4.68;;
37785;SDS011;23625;48.784;9.336;2022-07-29T13:47:04;5.95;;;4.60;;
37785;SDS011;23625;48.784;9.336;2022-07-29T13:49:30;6.63;;;4.88;;
37785;SDS011;23625;48.784;9.336;2022-07-29T13:51:56;8.73;;;4.80;;
37785;SDS011;23625;48.784;9.336;2022-07-29T13:54:21;10.00;;;5.30;;
37785;SDS011;23625;48.784;9.336;2022-07-29T13:56:47;5.88;;;4.70;;
37785;SDS011;23625;48.784;9.336;2022-07-29T13:59:13;11.07;;;5.15;;
37785;SDS011;23625;48.784;9.336;2022-07-29T14:01:39;7.22;;;4.88;;
37785;SDS011;23625;48.784;9.336;2022-07-29T14:04:07;8.77;;;5.20;;
37785;SDS011;23625;48.784;9.336;2022-07-29T14:06:35;9.88;;;5.78;;
37785;SDS011;23625;48.784;9.336;2022-07-29T14:09:01;7.30;;;5.80;;
37785;SDS011;23625;48.784;9.336;2022-07-29T14:11:27;8.07;;;5.65;;
37785;SDS011;23625;48.784;9.336;2022-07-29T14:13:53;14.90;;;6.10;;
37785;SDS011;23625;48.784;9.336;2022-07-29T14:16:18;10.43;;;6.63;;
37785;SDS011;23625;48.784;9.336;2022-07-29T14:18:44;12.52;;;6.10;;
37785;SDS011;23625;48.784;9.336;2022-07-29T14:21:09;14.07;;;6.88;;
37785;SDS011;23625;48.784;9.336;2022-07-29T14:23:36;11.05;;;6.30;;
37785;SDS011;23625;48.784;9.336;2022-07-29T14:26:01;18.35;;;5.97;;
37785;SDS011;23625;48.784;9.336;2022-07-29T14:28:27;8.05;;;6.13;;
37785;SDS011;23625;48.784;9.336;2022-07-29T14:30:53;12.02;;;6.30;;
37785;SDS011;23625;48.784;9.336;2022-07-29T14:33:18;8.50;;;5.82;;
37785;SDS011;23625;48.784;9.336;2022-07-29T14:35:44;14.30;;;6.60;;
37785;SDS011;23625;48.784;9.336;2022-07-29T14:38:09;9.13;;;6.50;;
37785;SDS011;23625;48.784;9.336;2022-07-29T14:40:35;8.60;;;6.55;;
37785;SDS011;23625;48.784;9.336;2022-07-29T14:43:01;16.30;;;7.22;;
37785;SDS011;23625;48.784;9.336;2022-07-29T14:45:27;9.10;;;6.40;;
37785;SDS011;23625;48.784;9.336;2022-07-29T14:47:53;16.23;;;6.80;;
37785;SDS011;23625;48.784;9.336;2022-07-29T14:50:19;8.88;;;6.75;;
37785;SDS011;23625;48.784;9.336;2022-07-29T14:52:45;12.90;;;6.25;;
37785;SDS011;23625;48.784;9.336;2022-07-29T14:55:11;16.75;;;7.05;;
37785;SDS011;23625;48.784;9.336;2022-07-29T14:57:36;9.52;;;6.30;;
37785;SDS011;23625;48.784;9.336;2022-07-29T15:00:03;13.38;;;7.10;;
37785;SDS011;23625;48.784;9.336;2022-07-29T15:02:31;9.30;;;7.20;;
37785;SDS011;23625;48.784;9.336;2022-07-29T15:04:56;9.93;;;7.05;;
37785;SDS011;23625;48.784;9.336;2022-07-29T15:07:22;9.05;;;6.38;;
37785;SDS011;23625;48.784;9.336;2022-07-29T15:09:47;10.13;;;6.78;;
37785;SDS011;23625;48.784;9.336;2022-07-29T15:12:13;11.10;;;6.60;;
37785;SDS011;23625;48.784;9.336;2022-07-29T15:14:39;9.35;;;6.50;;
37785;SDS011;23625;48.784;9.336;2022-07-29T15:17:04;8.60;;;6.03;;
37785;SDS011;23625;48.784;9.336;2022-07-29T15:19:30;8.40;;;5.65;;
37785;SDS011;23625;48.784;9.336;2022-07-29T15:21:55;8.10;;;5.43;;
37785;SDS011;23625;48.784;9.336;2022-07-29T15:24:21;9.02;;;5.85;;
37785;SDS011;23625;48.784;9.336;2022-07-29T15:26:47;8.13;;;5.40;;
37785;SDS011;23625;48.784;9.336;2022-07-29T15:29:13;10.27;;;5.95;;
37785;SDS011;23625;48.784;9.336;2022-07-29T15:31:38;6.32;;;5.63;;
37785;SDS011;23625;48.784;9.336;2022-07-29T15:34:04;13.05;;;5.32;;
37785;SDS011;23625;48.784;9.336;2022-07-29T15:36:30;9.02;;;5.25;;
37785;SDS011;23625;48.784;9.336;2022-07-29T15:38:56;8.10;;;5.32;;
37785;SDS011;23625;48.784;9.336;2022-07-29T15:41:21;7.85;;;5.78;;
37785;SDS011;23625;48.784;9.336;2022-07-29T15:43:47;8.95;;;5.53;;
37785;SDS011;23625;48.784;9.336;2022-07-29T15:46:14;8.35;;;5.63;;